Time;durP1;ratioP1;P1;durP2;ratioP2;P2;SDS_P1;SDS_P2;PMS_P1;PMS_P2;Temp;Humidity;BMP_temperature;BMP_pressure;BME280_temperature;BME280_humidity;BME280_pressure;Samples;Min_cycle;Max_cycle;Signal;HPM_P1;HPM_P2
2021/04/10 00:01:15;;;;;;;23.15;12.93;;;;;;;;;;5114651;28;20098;-70
2021/04/10 00:03:41;;;;;;;27.80;13.10;;;;;;;;;;5095802;28;20359;-71
2021/04/10 00:06:07;;;;;;;26.92;15.02;;;;;;;;;;5114269;28;20015;-71
2021/04/10 00:08:33;;;;;;;24.40;13.15;;;;;;;;;;5113885;28;20019;-71
2021/04/10 00:10:59;;;;;;;26.65;14.50;;;;;;;;;;5096081;28;20015;-70
2021/04/10 00:13:25;;;;;;;26.92;13.60;;;;;;;;;;5113991;28;20059;-70
2021/04/10 00:15:52;;;;;;;23.92;14.30;;;;;;;;;;5113883;28;20016;-70
2021/04/10 00:18:18;;;;;;;27.58;14.07;;;;;;;;;;5096205;28;20024;-71
2021/04/10 00:20:44;;;;;;;31.08;15.23;;;;;;;;;;5114141;28;20047;-71
2021/04/10 00:23:11;;;;;;;23.95;12.80;;;;;;;;;;5113864;28;20016;-71
2021/04/10 00:25:37;;;;;;;28.23;14.15;;;;;;;;;;5095891;28;20084;-71
2021/04/10 00:28:03;;;;;;;26.20;14.50;;;;;;;;;;5095836;28;20530;-68
2021/04/10 00:30:29;;;;;;;26.17;13.93;;;;;;;;;;5095193;28;20023;-68
2021/04/10 00:32:55;;;;;;;30.73;15.30;;;;;;;;;;5113776;28;20020;-68
2021/04/10 00:35:21;;;;;;;29.90;16.58;;;;;;;;;;5114098;28;20015;-68
2021/04/10 00:37:47;;;;;;;38.35;18.90;;;;;;;;;;5099270;28;20047;-69
2021/04/10 00:40:14;;;;;;;30.10;17.10;;;;;;;;;;5118085;28;20094;-68
2021/04/10 00:42:40;;;;;;;35.97;17.93;;;;;;;;;;5118149;28;20023;-69
2021/04/10 00:45:07;;;;;;;44.13;21.10;;;;;;;;;;5117358;28;20463;-67
2021/04/10 00:47:33;;;;;;;61.17;28.60;;;;;;;;;;5099644;28;20053;-69
2021/04/10 00:50:00;;;;;;;68.13;32.88;;;;;;;;;;5117906;28;20072;-70
2021/04/10 00:52:26;;;;;;;66.28;30.92;;;;;;;;;;5117457;28;20020;-67
2021/04/10 00:54:52;;;;;;;68.57;31.60;;;;;;;;;;5117459;28;20020;-68
2021/04/10 00:57:19;;;;;;;61.90;28.50;;;;;;;;;;5117983;28;20038;-70
2021/04/10 00:59:46;;;;;;;57.20;27.52;;;;;;;;;;5099037;28;20463;-69
2021/04/10 01:02:13;;;;;;;47.47;23.85;;;;;;;;;;5117609;28;20019;-68
2021/04/10 01:04:39;;;;;;;56.03;25.48;;;;;;;;;;5117245;28;20095;-70
2021/04/10 01:07:06;;;;;;;54.67;23.90;;;;;;;;;;5117830;28;20099;-68
2021/04/10 01:09:32;;;;;;;65.93;29.17;;;;;;;;;;5099314;28;20290;-69
2021/04/10 01:12:17;;;;;;;72.82;31.20;;;;;;;;;;5117300;28;20091;-70
2021/04/10 01:15:02;;;;;;;78.53;32.60;;;;;;;;;;5117332;28;20031;-70
2021/04/10 01:17:33;;;;;;;72.03;30.40;;;;;;;;;;5099019;28;20026;-69
2021/04/10 01:19:59;;;;;;;133.95;63.35;;;;;;;;;;5116461;28;20019;-71
2021/04/10 01:22:25;;;;;;;88.78;41.97;;;;;;;;;;5098970;28;20015;-71
2021/04/10 01:25:02;;;;;;;86.82;40.60;;;;;;;;;;5116814;28;20016;-71
2021/04/10 01:27:47;;;;;;;73.70;36.17;;;;;;;;;;5116818;28;20103;-71
2021/04/10 01:30:17;;;;;;;87.45;39.30;;;;;;;;;;5117004;28;20051;-71
2021/04/10 01:33:07;;;;;;;66.65;32.92;;;;;;;;;;5117175;28;20011;-71
2021/04/10 01:35:38;;;;;;;54.35;28.83;;;;;;;;;;5117322;28;20020;-71
2021/04/10 01:38:07;;;;;;;58.83;29.65;;;;;;;;;;5098703;28;20028;-71
2021/04/10 01:40:34;;;;;;;63.97;31.52;;;;;;;;;;5098275;28;20473;-74
2021/04/10 01:43:01;;;;;;;58.75;31.05;;;;;;;;;;5116892;28;20020;-72
2021/04/10 01:45:28;;;;;;;57.58;30.40;;;;;;;;;;5098167;28;20024;-71
2021/04/10 01:47:55;;;;;;;44.05;23.45;;;;;;;;;;5115237;28;20448;-72
2021/04/10 01:50:22;;;;;;;44.58;22.70;;;;;;;;;;5116857;28;20020;-70
2021/04/10 01:52:51;;;;;;;43.43;22.17;;;;;;;;;;5116651;28;20083;-71
2021/04/10 01:55:17;;;;;;;48.92;24.85;;;;;;;;;;5116004;28;20015;-71
2021/04/10 01:57:44;;;;;;;44.92;24.90;;;;;;;;;;5098634;28;20019;-72
2021/04/10 02:00:11;;;;;;;38.75;22.65;;;;;;;;;;5116748;28;20351;-72
2021/04/10 02:02:39;;;;;;;35.00;18.98;;;;;;;;;;5097872;28;20457;-70
2021/04/10 02:05:06;;;;;;;36.08;18.85;;;;;;;;;;5098966;28;20329;-71
2021/04/10 02:07:33;;;;;;;30.33;15.45;;;;;;;;;;5115793;28;20425;-72
2021/04/10 02:10:00;;;;;;;29.98;14.80;;;;;;;;;;5098001;28;20044;-70
2021/04/10 02:12:28;;;;;;;21.73;11.98;;;;;;;;;;5116061;28;20030;-70
2021/04/10 02:14:58;;;;;;;19.42;12.25;;;;;;;;;;5115868;28;20077;-71
2021/04/10 02:17:24;;;;;;;20.60;11.43;;;;;;;;;;5116480;28;20060;-71
2021/04/10 02:19:51;;;;;;;22.27;12.90;;;;;;;;;;5097795;28;20397;-72
2021/04/10 02:22:17;;;;;;;25.83;15.30;;;;;;;;;;5097079;28;20479;-70
2021/04/10 02:24:44;;;;;;;24.52;15.30;;;;;;;;;;5097685;28;20016;-71
2021/04/10 02:27:11;;;;;;;30.38;15.98;;;;;;;;;;5097666;28;20043;-71
2021/04/10 02:29:37;;;;;;;29.25;16.77;;;;;;;;;;5097299;28;20031;-72
2021/04/10 02:32:12;;;;;;;32.55;18.33;;;;;;;;;;5115565;28;20095;-72
2021/04/10 02:34:42;;;;;;;37.10;19.55;;;;;;;;;;5115932;28;20011;-71
2021/04/10 02:37:08;;;;;;;31.85;18.88;;;;;;;;;;5115398;28;20371;-70
2021/04/10 02:39:34;;;;;;;32.67;20.02;;;;;;;;;;5115677;28;20084;-70
2021/04/10 02:42:02;;;;;;;35.85;19.55;;;;;;;;;;5097400;28;20045;-71
2021/04/10 02:44:35;;;;;;;24.13;14.10;;;;;;;;;;5115022;28;20337;-71
2021/04/10 02:47:02;;;;;;;31.35;15.48;;;;;;;;;;5115283;28;20007;-70
2021/04/10 02:49:29;;;;;;;23.88;14.20;;;;;;;;;;5115060;28;20043;-70
2021/04/10 02:51:57;;;;;;;23.85;14.90;;;;;;;;;;5115476;28;20023;-71
2021/04/10 02:54:42;;;;;;;21.05;14.63;;;;;;;;;;5097146;28;20020;-72
2021/04/10 02:57:10;;;;;;;24.73;13.05;;;;;;;;;;5115286;28;20020;-70
2021/04/10 02:59:36;;;;;;;;;;;;;;;;;;5115637;28;20031;-71
2021/04/10 03:02:02;;;;;;;25.58;12.52;;;;;;;;;;5097404;28;20362;-71
2021/04/10 03:04:29;;;;;;;25.88;12.82;;;;;;;;;;5114893;28;20030;-70
2021/04/10 03:06:56;;;;;;;21.13;12.25;;;;;;;;;;5116006;28;20444;-73
2021/04/10 03:09:22;;;;;;;24.15;13.43;;;;;;;;;;5096498;28;20023;-74
2021/04/10 03:11:49;;;;;;;20.35;11.80;;;;;;;;;;5115204;28;20460;-71
2021/04/10 03:14:17;;;;;;;23.85;14.68;;;;;;;;;;5115299;28;20513;-71
2021/04/10 03:16:44;;;;;;;20.70;12.55;;;;;;;;;;5097280;28;20080;-71
2021/04/10 03:19:10;;;;;;;23.15;12.45;;;;;;;;;;5096471;28;20055;-69
2021/04/10 03:21:39;;;;;;;21.05;11.77;;;;;;;;;;5114679;28;20074;-70
2021/04/10 03:24:05;;;;;;;21.88;12.75;;;;;;;;;;5114882;28;20460;-69
2021/04/10 03:26:31;;;;;;;20.10;11.40;;;;;;;;;;5114250;28;20019;-70
2021/04/10 03:28:58;;;;;;;26.40;13.60;;;;;;;;;;5114988;28;20428;-69
2021/04/10 03:31:24;;;;;;;19.40;11.88;;;;;;;;;;5114467;28;20106;-69
2021/04/10 03:33:50;;;;;;;28.75;12.93;;;;;;;;;;5085848;28;20102;-69
2021/04/10 03:36:16;;;;;;;22.15;12.43;;;;;;;;;;5099171;28;20464;-69
2021/04/10 03:38:43;;;;;;;25.25;13.13;;;;;;;;;;5098347;28;20345;-70
2021/04/10 03:41:09;;;;;;;21.92;13.43;;;;;;;;;;5085336;28;20019;-69
2021/04/10 03:43:35;;;;;;;24.02;14.23;;;;;;;;;;5084632;28;20022;-68
2021/04/10 03:46:02;;;;;;;23.40;13.20;;;;;;;;;;5103866;28;20023;-68
2021/04/10 03:48:29;;;;;;;26.08;15.02;;;;;;;;;;5082654;28;20095;-69
2021/04/10 03:50:55;;;;;;;22.17;13.88;;;;;;;;;;5097385;28;20531;-68
2021/04/10 03:53:21;;;;;;;24.90;15.07;;;;;;;;;;5102178;28;20032;-69
2021/04/10 03:55:48;;;;;;;24.70;14.52;;;;;;;;;;5099560;28;20039;-69
2021/04/10 03:58:14;;;;;;;24.27;14.93;;;;;;;;;;5101140;28;20016;-69
2021/04/10 04:00:40;;;;;;;27.35;15.80;;;;;;;;;;5098740;28;20375;-70
2021/04/10 04:03:06;;;;;;;35.75;17.02;;;;;;;;;;5079718;28;20042;-71
2021/04/10 04:05:33;;;;;;;32.78;17.50;;;;;;;;;;5100680;28;20015;-70
2021/04/10 04:07:59;;;;;;;25.23;16.45;;;;;;;;;;5094616;28;20020;-68
2021/04/10 04:10:25;;;;;;;34.05;16.85;;;;;;;;;;5073829;28;20414;-69
2021/04/10 04:12:51;;;;;;;31.05;16.98;;;;;;;;;;5095917;28;20516;-68
2021/04/10 04:15:17;;;;;;;25.42;16.25;;;;;;;;;;5077685;28;20046;-69
2021/04/10 04:17:43;;;;;;;30.02;16.27;;;;;;;;;;5077937;28;20078;-68
2021/04/10 04:20:10;;;;;;;42.03;20.00;;;;;;;;;;5077604;28;20027;-68
2021/04/10 04:22:36;;;;;;;33.25;17.98;;;;;;;;;;5077508;28;20020;-68
2021/04/10 04:25:02;;;;;;;24.45;15.07;;;;;;;;;;5097518;28;20020;-70
2021/04/10 04:27:29;;;;;;;39.30;18.48;;;;;;;;;;5079393;28;20020;-68
2021/04/10 04:29:55;;;;;;;33.28;19.10;;;;;;;;;;5097805;28;20452;-70
2021/04/10 04:32:21;;;;;;;26.08;15.70;;;;;;;;;;5079563;28;20024;-69
2021/04/10 04:34:48;;;;;;;33.63;17.20;;;;;;;;;;5097180;28;20024;-69
2021/04/10 04:37:14;;;;;;;57.30;24.90;;;;;;;;;;5097988;28;20766;-72
2021/04/10 04:39:40;;;;;;;37.70;19.08;;;;;;;;;;5097601;28;20089;-72
2021/04/10 04:42:06;;;;;;;37.15;18.23;;;;;;;;;;5079118;28;20026;-70
2021/04/10 04:44:32;;;;;;;24.05;15.82;;;;;;;;;;5097265;28;20049;-69
2021/04/10 04:46:59;;;;;;;30.60;15.45;;;;;;;;;;5079326;28;20028;-69
2021/04/10 04:49:25;;;;;;;28.77;16.13;;;;;;;;;;5096781;28;20035;-70
2021/04/10 04:51:55;;;;;;;28.65;15.25;;;;;;;;;;5079484;28;20345;-69
2021/04/10 04:54:21;;;;;;;28.13;15.43;;;;;;;;;;5097063;28;20360;-70
2021/04/10 04:56:47;;;;;;;30.30;15.68;;;;;;;;;;5079071;28;20019;-70
2021/04/10 04:59:13;;;;;;;29.10;15.77;;;;;;;;;;5079014;28;20030;-70
2021/04/10 05:01:39;;;;;;;40.88;23.50;;;;;;;;;;5097582;28;20020;-69
2021/04/10 05:04:06;;;;;;;53.63;27.20;;;;;;;;;;5078652;28;20027;-69
2021/04/10 05:06:32;;;;;;;34.75;17.83;;;;;;;;;;5078945;28;20023;-70
2021/04/10 05:08:58;;;;;;;35.08;18.33;;;;;;;;;;5097199;28;20444;-72
2021/04/10 05:11:24;;;;;;;41.97;23.30;;;;;;;;;;5097127;28;20028;-69
2021/04/10 05:13:53;;;;;;;61.55;29.30;;;;;;;;;;5097042;28;20024;-69
2021/04/10 05:16:19;;;;;;;83.72;39.28;;;;;;;;;;5079067;28;20019;-70
2021/04/10 05:18:45;;;;;;;83.13;36.50;;;;;;;;;;5096804;28;20027;-70
2021/04/10 05:21:11;;;;;;;88.40;41.53;;;;;;;;;;5096704;28;20051;-70
2021/04/10 05:23:37;;;;;;;99.53;50.25;;;;;;;;;;5078401;28;20356;-69
2021/04/10 05:26:04;;;;;;;128.93;68.70;;;;;;;;;;5097004;28;20360;-70
2021/04/10 05:28:30;;;;;;;133.10;80.47;;;;;;;;;;5096960;28;20016;-69
2021/04/10 05:31:01;;;;;;;388.27;229.48;;;;;;;;;;5096611;28;20028;-70
2021/04/10 05:33:27;;;;;;;93.95;72.45;;;;;;;;;;5078818;28;20110;-68
2021/04/10 05:35:53;;;;;;;48.95;28.02;;;;;;;;;;5080486;28;20416;-67
2021/04/10 05:38:19;;;;;;;207.02;102.88;;;;;;;;;;5097843;28;20031;-69
2021/04/10 05:40:45;;;;;;;113.95;62.35;;;;;;;;;;5081075;28;20018;-68
2021/04/10 05:43:12;;;;;;;74.30;51.78;;;;;;;;;;5099030;28;20153;-67
2021/04/10 05:45:38;;;;;;;208.30;117.57;;;;;;;;;;5080699;28;20058;-68
2021/04/10 05:48:04;;;;;;;139.77;71.47;;;;;;;;;;5101477;28;20051;-68
2021/04/10 05:50:30;;;;;;;79.80;43.45;;;;;;;;;;5084009;28;20070;-71
2021/04/10 05:52:56;;;;;;;204.05;109.30;;;;;;;;;;5103449;28;20040;-70
2021/04/10 05:55:23;;;;;;;89.28;55.28;;;;;;;;;;5104026;28;20530;-68
2021/04/10 05:57:49;;;;;;;98.95;59.92;;;;;;;;;;5102835;28;20020;-70
2021/04/10 06:00:15;;;;;;;42.90;26.00;;;;;;;;;;5080055;28;20077;-70
2021/04/10 06:02:41;;;;;;;29.92;21.55;;;;;;;;;;5079452;28;20024;-71
2021/04/10 06:05:08;;;;;;;28.23;17.50;;;;;;;;;;5079128;28;20093;-69
2021/04/10 06:07:34;;;;;;;29.80;22.85;;;;;;;;;;5096895;28;20016;-69
2021/04/10 06:10:00;;;;;;;26.85;14.90;;;;;;;;;;5079475;28;20539;-72
2021/04/10 06:12:26;;;;;;;58.63;33.85;;;;;;;;;;5095733;28;20107;-69
2021/04/10 06:14:52;;;;;;;72.18;34.28;;;;;;;;;;5077673;28;20016;-74
2021/04/10 06:17:18;;;;;;;197.00;97.03;;;;;;;;;;5095763;28;20012;-71
2021/04/10 06:19:44;;;;;;;125.10;72.40;;;;;;;;;;5095154;28;20762;-71
2021/04/10 06:22:11;;;;;;;58.83;36.22;;;;;;;;;;5095191;28;20051;-72
2021/04/10 06:24:37;;;;;;;40.22;25.50;;;;;;;;;;5077523;28;20174;-73
2021/04/10 06:27:03;;;;;;;40.92;21.48;;;;;;;;;;5095309;28;20016;-72
2021/04/10 06:29:29;;;;;;;23.35;15.68;;;;;;;;;;5077319;28;20023;-72
2021/04/10 06:31:55;;;;;;;30.90;15.73;;;;;;;;;;5077294;28;20034;-74
2021/04/10 06:34:21;;;;;;;17.88;12.18;;;;;;;;;;5076282;28;20012;-73
2021/04/10 06:36:47;;;;;;;123.45;71.50;;;;;;;;;;5095060;28;20518;-72
2021/04/10 06:39:13;;;;;;;44.15;26.38;;;;;;;;;;5077256;28;20368;-71
2021/04/10 06:41:40;;;;;;;34.50;21.08;;;;;;;;;;5076830;28;20016;-69
2021/04/10 06:44:06;;;;;;;21.88;14.05;;;;;;;;;;5077085;28;20020;-70
2021/04/10 06:46:33;;;;;;;15.20;7.85;;;;;;;;;;5077012;28;20453;-74
2021/04/10 06:48:59;;;;;;;25.27;10.77;;;;;;;;;;5076678;28;20015;-71
2021/04/10 06:51:26;;;;;;;22.90;11.02;;;;;;;;;;5076968;28;20052;-70
2021/04/10 06:53:54;;;;;;;15.57;5.73;;;;;;;;;;5095376;28;20035;-71
2021/04/10 06:56:32;;;;;;;11.55;5.05;;;;;;;;;;5095519;28;20099;-66
2021/04/10 06:59:01;;;;;;;12.23;7.00;;;;;;;;;;5102726;28;20517;-66
2021/04/10 07:01:27;;;;;;;10.38;7.57;;;;;;;;;;5107972;28;20031;-73
2021/04/10 07:03:54;;;;;;;7.82;5.05;;;;;;;;;;5102240;28;20012;-69
2021/04/10 07:06:20;;;;;;;9.52;5.82;;;;;;;;;;5086029;28;20020;-69
2021/04/10 07:08:46;;;;;;;10.73;5.20;;;;;;;;;;5085237;28;20019;-72
2021/04/10 07:11:16;;;;;;;17.00;8.07;;;;;;;;;;5086956;28;20597;-72
2021/04/10 07:13:43;;;;;;;11.55;5.70;;;;;;;;;;5112839;28;20518;-74
2021/04/10 07:16:10;;;;;;;16.67;5.95;;;;;;;;;;5096548;28;20019;-73
2021/04/10 07:18:36;;;;;;;15.73;8.88;;;;;;;;;;5096691;28;20020;-73
2021/04/10 07:21:17;;;;;;;24.88;12.38;;;;;;;;;;5111110;28;20070;-65
2021/04/10 07:23:54;;;;;;;10.13;5.07;;;;;;;;;;5101839;28;20020;-70
2021/04/10 07:26:43;;;;;;;11.13;6.43;;;;;;;;;;5102200;28;20482;-73
2021/04/10 07:29:33;;;;;;;14.05;4.32;;;;;;;;;;5091187;28;20531;-73
2021/04/10 07:31:59;;;;;;;33.80;28.60;;;;;;;;;;5089602;28;20068;-73
2021/04/10 07:34:26;;;;;;;26.27;15.80;;;;;;;;;;5085962;28;20011;-74
2021/04/10 07:36:59;;;;;;;5.97;2.08;;;;;;;;;;5084285;28;20016;-72
2021/04/10 07:39:26;;;;;;;11.20;4.85;;;;;;;;;;5101988;28;20027;-67
2021/04/10 07:41:59;;;;;;;6.72;3.17;;;;;;;;;;5103047;28;20469;-68
2021/04/10 07:44:41;;;;;;;4.60;2.22;;;;;;;;;;5104003;28;20069;-72
2021/04/10 07:47:08;;;;;;;7.40;2.90;;;;;;;;;;5102019;28;20020;-63
2021/04/10 07:49:34;;;;;;;11.48;3.55;;;;;;;;;;5102889;28;20016;-73
2021/04/10 07:52:04;;;;;;;7.60;2.40;;;;;;;;;;5103863;28;20471;-69
2021/04/10 07:54:31;;;;;;;8.85;4.00;;;;;;;;;;5102298;28;20744;-74
2021/04/10 07:56:57;;;;;;;;;;;;;;;;;;5103069;28;20069;-71
2021/04/10 07:59:24;;;;;;;14.48;6.00;;;;;;;;;;5085447;28;19904;-69
2021/04/10 08:01:50;;;;;;;16.55;8.70;;;;;;;;;;5078039;28;20069;-67
2021/04/10 08:04:16;;;;;;;24.42;10.95;;;;;;;;;;5093735;28;20051;-70
2021/04/10 08:07:03;;;;;;;9.48;3.60;;;;;;;;;;5093688;28;20016;-69
2021/04/10 08:09:29;;;;;;;12.73;4.13;;;;;;;;;;5075781;28;20077;-68
2021/04/10 08:11:55;;;;;;;16.45;6.75;;;;;;;;;;5093643;28;20040;-69
2021/04/10 08:14:22;;;;;;;9.55;5.38;;;;;;;;;;5075672;28;20051;-69
2021/04/10 08:16:49;;;;;;;19.35;5.07;;;;;;;;;;5094147;28;20016;-69
2021/04/10 08:19:15;;;;;;;10.60;3.70;;;;;;;;;;5093215;28;20025;-68
2021/04/10 08:21:41;;;;;;;5.90;3.20;;;;;;;;;;5072100;28;20053;-70
2021/04/10 08:24:27;;;;;;;26.30;8.25;;;;;;;;;;5073561;28;20036;-69
2021/04/10 08:26:53;;;;;;;6.65;1.77;;;;;;;;;;5073188;28;20043;-70
2021/04/10 08:29:20;;;;;;;23.27;12.50;;;;;;;;;;5073441;28;20508;-69
2021/04/10 08:31:46;;;;;;;10.50;5.43;;;;;;;;;;5073964;28;20056;-70
2021/04/10 08:34:13;;;;;;;7.05;4.22;;;;;;;;;;5071888;28;20013;-69
2021/04/10 08:36:40;;;;;;;9.13;4.25;;;;;;;;;;5073195;28;20065;-70
2021/04/10 08:39:09;;;;;;;6.10;1.67;;;;;;;;;;5072189;28;20028;-69
2021/04/10 08:41:35;;;;;;;6.00;2.78;;;;;;;;;;5071812;28;20031;-69
2021/04/10 08:44:02;;;;;;;13.32;5.80;;;;;;;;;;5072160;28;20071;-70
2021/04/10 08:46:29;;;;;;;28.98;21.60;;;;;;;;;;5072869;28;20496;-70
2021/04/10 08:48:57;;;;;;;12.95;4.07;;;;;;;;;;5073311;28;20016;-70
2021/04/10 08:51:23;;;;;;;5.80;2.63;;;;;;;;;;5073294;28;20105;-70
2021/04/10 08:53:51;;;;;;;9.68;3.80;;;;;;;;;;5073150;28;20425;-70
2021/04/10 08:56:22;;;;;;;8.15;3.60;;;;;;;;;;5072996;28;20376;-69
2021/04/10 08:58:49;;;;;;;6.82;2.70;;;;;;;;;;5076525;28;20017;-70
2021/04/10 09:01:30;;;;;;;5.47;1.75;;;;;;;;;;5077002;28;20047;-71
2021/04/10 09:03:56;;;;;;;7.10;2.40;;;;;;;;;;5077141;28;20024;-68
2021/04/10 09:06:31;;;;;;;6.70;2.03;;;;;;;;;;5076318;28;20025;-69
2021/04/10 09:09:13;;;;;;;10.43;2.78;;;;;;;;;;5076948;28;20030;-69
2021/04/10 09:11:40;;;;;;;6.43;2.53;;;;;;;;;;5075231;28;20475;-69
2021/04/10 09:14:06;;;;;;;8.05;2.10;;;;;;;;;;5076810;28;20013;-67
2021/04/10 09:16:40;;;;;;;3.13;1.80;;;;;;;;;;5076664;28;20327;-68
2021/04/10 09:19:12;;;;;;;6.05;1.75;;;;;;;;;;5075531;28;20020;-69
2021/04/10 09:21:40;;;;;;;22.23;10.10;;;;;;;;;;5090554;28;20048;-69
2021/04/10 09:24:21;;;;;;;10.15;3.40;;;;;;;;;;5078618;28;20016;-70
2021/04/10 09:26:54;;;;;;;8.00;2.22;;;;;;;;;;5096740;28;20023;-70
2021/04/10 09:29:20;;;;;;;4.10;2.25;;;;;;;;;;5096714;28;20452;-70
2021/04/10 09:31:49;;;;;;;23.25;8.65;;;;;;;;;;5096406;28;20035;-69
2021/04/10 09:34:34;;;;;;;5.88;3.08;;;;;;;;;;5096336;28;20445;-70
2021/04/10 09:37:00;;;;;;;12.40;1.88;;;;;;;;;;5078353;28;20016;-70
2021/04/10 09:39:45;;;;;;;10.82;5.03;;;;;;;;;;5096224;28;20024;-70
2021/04/10 09:42:11;;;;;;;9.20;2.47;;;;;;;;;;5096213;28;20387;-69
2021/04/10 09:44:55;;;;;;;7.22;4.80;;;;;;;;;;5096140;28;20456;-69
2021/04/10 09:47:21;;;;;;;8.95;3.60;;;;;;;;;;5096073;28;20020;-69
2021/04/10 09:49:47;;;;;;;5.88;2.42;;;;;;;;;;5096422;28;20089;-69
2021/04/10 09:52:16;;;;;;;6.38;2.70;;;;;;;;;;5078681;28;20398;-69
2021/04/10 09:54:43;;;;;;;6.88;2.50;;;;;;;;;;5095961;28;20012;-68
2021/04/10 09:57:19;;;;;;;8.38;1.75;;;;;;;;;;5096222;28;20508;-69
2021/04/10 09:59:45;;;;;;;10.55;5.80;;;;;;;;;;5095960;28;20073;-66
2021/04/10 10:02:11;;;;;;;12.15;5.00;;;;;;;;;;5095505;28;20338;-68
2021/04/10 10:04:37;;;;;;;10.55;4.43;;;;;;;;;;5096064;28;20020;-69
2021/04/10 10:07:04;;;;;;;6.97;3.00;;;;;;;;;;5095954;28;20012;-68
2021/04/10 10:09:30;;;;;;;21.97;8.73;;;;;;;;;;5076671;28;20027;-69
2021/04/10 10:11:57;;;;;;;14.30;3.47;;;;;;;;;;5096159;28;20017;-68
2021/04/10 10:14:24;;;;;;;5.93;2.45;;;;;;;;;;5095603;28;20095;-69
2021/04/10 10:16:50;;;;;;;;;;;;;;;;;;5096258;28;20016;-69
2021/04/10 10:19:20;;;;;;;5.55;2.72;;;;;;;;;;5078462;28;20324;-69
2021/04/10 10:21:47;;;;;;;24.90;13.05;;;;;;;;;;5094935;28;20036;-69
2021/04/10 10:24:19;;;;;;;6.07;2.83;;;;;;;;;;5095720;28;20017;-68
2021/04/10 10:26:45;;;;;;;15.23;7.40;;;;;;;;;;5095799;28;20028;-68
2021/04/10 10:29:14;;;;;;;8.45;3.13;;;;;;;;;;5076989;28;20115;-69
2021/04/10 10:31:46;;;;;;;4.50;2.38;;;;;;;;;;5077370;28;20103;-68
2021/04/10 10:34:17;;;;;;;8.75;4.00;;;;;;;;;;5095171;28;20341;-72
2021/04/10 10:36:44;;;;;;;5.07;2.30;;;;;;;;;;5095023;28;20068;-75
2021/04/10 10:39:25;;;;;;;6.25;2.97;;;;;;;;;;5095399;28;20012;-75
2021/04/10 10:41:51;;;;;;;6.18;1.60;;;;;;;;;;5095620;28;20103;-73
2021/04/10 10:44:21;;;;;;;4.95;2.08;;;;;;;;;;5094971;28;20024;-76
2021/04/10 10:46:57;;;;;;;4.85;1.15;;;;;;;;;;5077321;28;20020;-73
2021/04/10 10:49:24;;;;;;;8.02;2.80;;;;;;;;;;5076695;28;20059;-73
2021/04/10 10:51:50;;;;;;;3.90;1.73;;;;;;;;;;5095430;28;20048;-71
2021/04/10 10:54:16;;;;;;;3.95;1.55;;;;;;;;;;5076908;28;20077;-71
2021/04/10 10:56:42;;;;;;;7.00;1.85;;;;;;;;;;5100911;28;20468;-81
2021/04/10 10:59:09;;;;;;;4.85;1.92;;;;;;;;;;5084414;28;20482;-74
2021/04/10 11:01:35;;;;;;;5.45;1.33;;;;;;;;;;5091025;28;20038;-74
2021/04/10 11:04:01;;;;;;;6.70;2.90;;;;;;;;;;5115117;28;20020;-76
2021/04/10 11:06:28;;;;;;;14.40;10.18;;;;;;;;;;5097281;28;20367;-71
2021/04/10 11:08:55;;;;;;;21.33;16.83;;;;;;;;;;5114852;28;20537;-72
2021/04/10 11:11:24;;;;;;;9.40;4.50;;;;;;;;;;5096607;28;20132;-71
2021/04/10 11:13:50;;;;;;;19.13;9.95;;;;;;;;;;5096785;28;20372;-76
2021/04/10 11:16:18;;;;;;;7.18;1.83;;;;;;;;;;5115359;28;20024;-73
2021/04/10 11:18:44;;;;;;;7.03;3.30;;;;;;;;;;5096192;28;20097;-72
2021/04/10 11:21:11;;;;;;;9.87;5.40;;;;;;;;;;5114534;28;20043;-76
2021/04/10 11:23:55;;;;;;;3.75;2.72;;;;;;;;;;5095656;28;20027;-76
2021/04/10 11:26:54;;;;;;;16.33;10.70;;;;;;;;;;5089526;28;20134;-74
2021/04/10 11:29:31;;;;;;;6.07;3.08;;;;;;;;;;5058334;28;20040;-77
2021/04/10 11:32:12;;;;;;;7.45;1.48;;;;;;;;;;5085811;28;20138;-75
2021/04/10 11:34:38;;;;;;;2.55;1.52;;;;;;;;;;5085967;28;20482;-73
2021/04/10 11:37:05;;;;;;;5.10;2.00;;;;;;;;;;5085900;28;20032;-73
2021/04/10 11:39:31;;;;;;;3.85;1.75;;;;;;;;;;5102120;28;20034;-72
2021/04/10 11:41:57;;;;;;;10.73;2.78;;;;;;;;;;5103180;28;20054;-71
2021/04/10 11:44:24;;;;;;;3.72;0.73;;;;;;;;;;5101250;28;20020;-72
2021/04/10 11:47:00;;;;;;;16.10;2.40;;;;;;;;;;5103368;28;20018;-72
2021/04/10 11:49:27;;;;;;;6.60;1.65;;;;;;;;;;5083322;28;20032;-70
2021/04/10 11:51:54;;;;;;;12.07;2.22;;;;;;;;;;5103354;28;20028;-75
2021/04/10 11:54:33;;;;;;;3.70;1.30;;;;;;;;;;5103081;28;20080;-74
2021/04/10 11:56:59;;;;;;;7.40;1.67;;;;;;;;;;5085689;28;20019;-71
2021/04/10 11:59:32;;;;;;;4.97;1.80;;;;;;;;;;5085340;28;20016;-73
2021/04/10 12:02:01;;;;;;;9.35;1.45;;;;;;;;;;5093694;28;20027;-73
2021/04/10 12:04:36;;;;;;;6.38;1.15;;;;;;;;;;5075785;28;20546;-73
2021/04/10 12:07:07;;;;;;;6.15;1.83;;;;;;;;;;5075495;28;20020;-72
2021/04/10 12:09:40;;;;;;;2.38;1.92;;;;;;;;;;5075854;28;20024;-74
2021/04/10 12:12:08;;;;;;;5.82;1.55;;;;;;;;;;5093966;28;20027;-73
2021/04/10 12:14:35;;;;;;;0.90;0.60;;;;;;;;;;5093538;28;20020;-73
2021/04/10 12:17:01;;;;;;;;;;;;;;;;;;5094335;28;20149;-75
2021/04/10 12:19:27;;;;;;;11.40;6.93;;;;;;;;;;5075434;28;20374;-75
2021/04/10 12:21:53;;;;;;;4.65;2.60;;;;;;;;;;5093560;28;20040;-77
2021/04/10 12:24:20;;;;;;;6.97;2.00;;;;;;;;;;5094104;28;20099;-77
2021/04/10 12:26:46;;;;;;;7.38;4.53;;;;;;;;;;5075651;28;20023;-76
2021/04/10 12:29:13;;;;;;;5.25;2.83;;;;;;;;;;5075312;28;20024;-76
2021/04/10 12:31:39;;;;;;;5.75;1.67;;;;;;;;;;5075809;28;20027;-75
2021/04/10 12:34:05;;;;;;;4.70;2.63;;;;;;;;;;5079782;28;20402;-76
2021/04/10 12:36:31;;;;;;;4.38;2.10;;;;;;;;;;5079632;28;20396;-76
2021/04/10 12:38:58;;;;;;;1.92;0.98;;;;;;;;;;5097977;28;20364;-74
2021/04/10 12:41:24;;;;;;;8.38;3.78;;;;;;;;;;5079279;28;20020;-75
2021/04/10 12:43:51;;;;;;;9.93;3.93;;;;;;;;;;5079455;28;20022;-74
2021/04/10 12:46:19;;;;;;;8.73;1.70;;;;;;;;;;5079385;28;20024;-78
2021/04/10 12:48:45;;;;;;;3.42;1.17;;;;;;;;;;5079080;28;20023;-78
2021/04/10 12:51:11;;;;;;;3.53;1.48;;;;;;;;;;5097447;28;20019;-78
2021/04/10 12:53:37;;;;;;;2.90;1.20;;;;;;;;;;5079715;28;20023;-82
2021/04/10 12:56:03;;;;;;;2.38;1.50;;;;;;;;;;5078965;28;20020;-78
2021/04/10 12:58:29;;;;;;;2.28;0.93;;;;;;;;;;5079167;28;20020;-80
2021/04/10 13:00:56;;;;;;;3.80;0.57;;;;;;;;;;5079217;28;20402;-81
2021/04/10 13:03:23;;;;;;;0.98;0.40;;;;;;;;;;5079066;28;20027;-81
2021/04/10 13:05:50;;;;;;;1.52;1.13;;;;;;;;;;5079173;28;20022;-80
2021/04/10 13:08:16;;;;;;;4.60;0.98;;;;;;;;;;5079051;28;20050;-80
2021/04/10 13:10:42;;;;;;;1.60;0.65;;;;;;;;;;5078891;28;20214;-77
2021/04/10 13:13:08;;;;;;;6.13;1.70;;;;;;;;;;5078848;28;20102;-80
2021/04/10 13:15:35;;;;;;;8.25;2.15;;;;;;;;;;5078929;28;20020;-79
2021/04/10 13:18:01;;;;;;;4.82;2.15;;;;;;;;;;5096521;28;20447;-81
2021/04/10 13:20:30;;;;;;;5.13;1.23;;;;;;;;;;5078591;28;20127;-86
2021/04/10 13:22:57;;;;;;;4.45;1.33;;;;;;;;;;5078816;28;20027;-80
2021/04/10 13:25:23;;;;;;;3.13;1.08;;;;;;;;;;5096946;28;20017;-81
2021/04/10 13:27:50;;;;;;;4.30;1.42;;;;;;;;;;5079509;28;20031;-81
2021/04/10 13:30:17;;;;;;;3.53;0.95;;;;;;;;;;5078305;28;20039;-81
2021/04/10 13:32:43;;;;;;;1.85;0.75;;;;;;;;;;5096926;28;20035;-81
2021/04/10 13:35:10;;;;;;;5.85;1.55;;;;;;;;;;5078743;28;20031;-85
2021/04/10 13:37:36;;;;;;;4.97;1.63;;;;;;;;;;5096913;28;20058;-84
2021/04/10 13:40:02;;;;;;;8.05;2.78;;;;;;;;;;5078513;28;20020;-78
2021/04/10 13:42:28;;;;;;;14.77;2.27;;;;;;;;;;5078567;28;20020;-83
2021/04/10 13:44:54;;;;;;;5.90;1.13;;;;;;;;;;5078545;28;20364;-84
2021/04/10 13:47:20;;;;;;;7.60;2.60;;;;;;;;;;5078522;28;20020;-83
2021/04/10 13:49:46;;;;;;;8.77;3.63;;;;;;;;;;5078085;28;20028;-80
2021/04/10 13:52:13;;;;;;;7.72;5.07;;;;;;;;;;5078060;28;20529;-81
2021/04/10 13:54:39;;;;;;;9.02;1.17;;;;;;;;;;5078323;28;20456;-80
2021/04/10 13:57:05;;;;;;;8.20;3.60;;;;;;;;;;5078131;28;20016;-80
2021/04/10 13:59:31;;;;;;;7.20;3.47;;;;;;;;;;5077719;28;20024;-77
2021/04/10 14:01:57;;;;;;;7.22;2.50;;;;;;;;;;5095893;28;20020;-75
2021/04/10 14:04:25;;;;;;;8.98;4.80;;;;;;;;;;5077983;28;20111;-74
2021/04/10 14:06:51;;;;;;;;;;;;;;;;;;5078017;28;20024;-80
2021/04/10 14:09:17;;;;;;;7.13;2.72;;;;;;;;;;5095932;28;19900;-75
2021/04/10 14:11:43;;;;;;;3.58;1.30;;;;;;;;;;5078084;28;20028;-77
2021/04/10 14:14:09;;;;;;;8.50;3.95;;;;;;;;;;5077494;28;20038;-72
2021/04/10 14:16:35;;;;;;;43.40;32.95;;;;;;;;;;5077656;28;20084;-76
2021/04/10 14:19:03;;;;;;;3.05;2.20;;;;;;;;;;5077376;28;20016;-79
2021/04/10 14:21:29;;;;;;;3.92;1.20;;;;;;;;;;5077530;28;20463;-75
2021/04/10 14:23:55;;;;;;;7.22;2.58;;;;;;;;;;5095705;28;20016;-75
2021/04/10 14:26:23;;;;;;;5.05;1.90;;;;;;;;;;5079224;28;20059;-76
2021/04/10 14:28:53;;;;;;;10.20;5.78;;;;;;;;;;5102852;28;20012;-77
2021/04/10 14:31:19;;;;;;;8.70;3.60;;;;;;;;;;5084387;28;20035;-79
2021/04/10 14:33:45;;;;;;;9.25;3.55;;;;;;;;;;5086679;28;20012;-75